Time,TemperatureF,DewpointF,PressureIn,WindDirection,WindDirectionDegrees,WindSpeedMPH,WindSpeedGustMPH,Humidity,HourlyPrecipIn,Conditions,Clouds,dailyrainin,SoftwareType,DateUTC
2013-03-13 00:02:00,47.5,45.0,29.99,West,280,0.0,0.0,91,0.00,,,0.00,meteohub,2013-03-13 07:02:00,
2013-03-13 00:07:00,47.5,45.0,29.99,West,280,0.0,0.0,91,0.00,,,0.00,meteohub,2013-03-13 07:07:00,
2013-03-13 00:12:00,47.3,44.8,29.99,West,280,0.0,0.0,91,0.00,,,0.00,meteohub,2013-03-13 07:12:00,
2013-03-13 00:17:00,47.1,45.0,29.99,West,280,0.0,0.0,92,0.00,,,0.00,meteohub,2013-03-13 07:17:00,
2013-03-13 00:22:00,47.1,45.0,29.99,West,280,0.0,0.0,92,0.00,,,0.00,meteohub,2013-03-13 07:22:00,
2013-03-13 00:27:00,46.9,44.8,29.99,West,280,0.0,0.0,92,0.00,,,0.00,meteohub,2013-03-13 07:27:00,
2013-03-13 00:32:00,46.9,44.8,29.99,West,280,0.0,0.0,92,0.00,,,0.00,meteohub,2013-03-13 07:32:00,
2013-03-13 00:37:00,46.9,45.0,29.99,West,280,0.0,0.0,93,0.00,,,0.00,meteohub,2013-03-13 07:37:00,
2013-03-13 00:42:00,46.9,45.0,29.99,West,280,0.0,0.0,93,0.00,,,0.00,meteohub,2013-03-13 07:42:00,
2013-03-13 00:47:00,47.1,45.1,29.99,West,280,0.0,0.0,93,0.00,,,0.00,meteohub,2013-03-13 07:47:00,
2013-03-13 00:52:00,47.1,45.5,29.99,West,280,0.0,0.0,94,0.00,,,0.00,meteohub,2013-03-13 07:52:00,
2013-03-13 00:57:00,47.1,45.5,29.99,West,280,0.0,0.0,94,0.00,,,0.00,meteohub,2013-03-13 07:57:00,
2013-03-13 01:02:00,47.1,45.5,29.99,West,280,0.0,0.0,94,0.00,,,0.00,meteohub,2013-03-13 08:02:00,
2013-03-13 01:08:00,47.1,45.1,29.99,West,280,0.0,0.0,93,0.00,,,0.00,meteohub,2013-03-13 08:08:00,
2013-03-13 01:13:00,47.1,45.5,29.99,West,280,0.0,0.0,94,0.00,,,0.00,meteohub,2013-03-13 08:13:00,
2013-03-13 01:18:00,47.1,45.5,29.99,West,280,0.0,0.0,94,0.00,,,0.00,meteohub,2013-03-13 08:18:00,
2013-03-13 01:23:00,47.3,45.7,29.99,West,280,0.0,0.0,94,0.00,,,0.00,meteohub,2013-03-13 08:23:00,
2013-03-13 01:28:00,47.5,45.9,29.98,West,280,0.0,0.0,94,0.00,,,0.00,meteohub,2013-03-13 08:28:00,
2013-03-13 01:33:00,47.5,45.9,29.98,West,280,0.0,0.0,94,0.00,,,0.00,meteohub,2013-03-13 08:33:00,
2013-03-13 01:38:00,47.5,46.0,29.98,West,280,0.0,0.0,95,0.00,,,0.00,meteohub,2013-03-13 08:38:00,
2013-03-13 01:43:00,47.5,45.9,29.98,West,280,0.0,0.0,94,0.00,,,0.00,meteohub,2013-03-13 08:43:00,
2013-03-13 01:48:00,47.7,46.0,29.98,West,280,0.0,0.0,94,0.00,,,0.00,meteohub,2013-03-13 08:48:00,
2013-03-13 01:53:00,47.7,46.0,29.98,West,280,0.0,0.0,94,0.00,,,0.00,meteohub,2013-03-13 08:53:00,
2013-03-13 01:58:00,47.7,46.0,29.99,West,280,0.0,0.0,94,0.00,,,0.00,meteohub,2013-03-13 08:58:00,
2013-03-13 02:03:00,47.5,45.9,29.99,West,280,0.0,0.0,94,0.00,,,0.00,meteohub,2013-03-13 09:03:00,
2013-03-13 02:08:00,47.5,45.9,29.99,West,280,0.0,0.0,94,0.00,,,0.00,meteohub,2013-03-13 09:08:00,
2013-03-13 02:13:00,47.5,45.9,29.99,West,280,0.0,0.0,94,0.00,,,0.00,meteohub,2013-03-13 09:13:00,
2013-03-13 02:18:00,47.5,45.9,29.99,West,280,0.0,0.0,94,0.00,,,0.00,meteohub,2013-03-13 09:18:00,
2013-03-13 02:23:00,47.5,45.9,29.99,West,280,0.0,0.0,94,0.00,,,0.00,meteohub,2013-03-13 09:23:00,
2013-03-13 02:28:00,47.5,45.9,29.99,West,280,0.0,0.0,94,0.00,,,0.00,meteohub,2013-03-13 09:28:00,
2013-03-13 02:33:00,47.5,46.0,29.99,West,280,0.0,0.0,95,0.00,,,0.00,meteohub,2013-03-13 09:33:00,
2013-03-13 02:38:00,47.3,45.7,29.99,West,280,0.0,0.0,94,0.00,,,0.00,meteohub,2013-03-13 09:38:00,
2013-03-13 02:43:00,47.3,45.9,29.99,West,280,0.0,0.0,95,0.00,,,0.00,meteohub,2013-03-13 09:43:00,
2013-03-13 02:48:00,47.3,45.7,29.99,West,280,0.0,0.0,94,0.00,,,0.00,meteohub,2013-03-13 09:48:00,
2013-03-13 02:53:00,47.1,45.7,29.99,West,280,0.0,0.0,95,0.00,,,0.00,meteohub,2013-03-13 09:53:00,
2013-03-13 02:58:00,47.3,45.9,29.99,West,280,0.0,0.0,95,0.00,,,0.00,meteohub,2013-03-13 09:58:00,
2013-03-13 03:03:00,47.1,45.7,29.99,West,280,0.0,0.0,95,0.00,,,0.00,meteohub,2013-03-13 10:03:00,
2013-03-13 03:08:00,47.1,45.7,29.99,West,280,0.0,0.0,95,0.00,,,0.00,meteohub,2013-03-13 10:08:00,
2013-03-13 03:13:00,47.1,45.7,29.99,West,280,0.0,0.0,95,0.00,,,0.00,meteohub,2013-03-13 10:13:00,
2013-03-13 03:18:00,47.1,45.7,29.99,West,280,0.0,0.0,95,0.00,,,0.00,meteohub,2013-03-13 10:18:00,
2013-03-13 03:23:00,46.9,45.5,29.99,West,280,0.0,0.0,95,0.00,,,0.00,meteohub,2013-03-13 10:23:00,
2013-03-13 03:28:00,46.8,45.3,29.99,West,280,0.0,0.0,95,0.00,,,0.00,meteohub,2013-03-13 10:28:00,
2013-03-13 03:33:00,46.6,45.0,29.99,West,280,0.0,0.0,94,0.00,,,0.00,meteohub,2013-03-13 10:33:00,
2013-03-13 03:38:00,46.4,44.8,29.99,West,280,0.0,0.0,94,0.00,,,0.00,meteohub,2013-03-13 10:38:00,
2013-03-13 03:44:00,46.2,44.6,29.99,West,280,0.0,0.0,94,0.00,,,0.00,meteohub,2013-03-13 10:44:00,
2013-03-13 03:48:00,46.0,44.4,29.99,West,280,0.0,0.0,94,0.00,,,0.00,meteohub,2013-03-13 10:48:00,
2013-03-13 03:54:00,45.9,44.2,29.99,West,280,0.0,0.0,94,0.00,,,0.00,meteohub,2013-03-13 10:54:00,
2013-03-13 03:59:00,45.7,44.4,29.99,West,280,0.0,0.0,95,0.00,,,0.00,meteohub,2013-03-13 10:59:00,
2013-03-13 04:04:00,45.7,44.4,29.99,West,280,0.0,0.0,95,0.00,,,0.00,meteohub,2013-03-13 11:04:00,
2013-03-13 04:09:00,45.5,44.2,29.99,West,280,0.0,0.0,95,0.00,,,0.00,meteohub,2013-03-13 11:09:00,
2013-03-13 04:14:00,45.3,44.1,29.99,West,280,0.0,0.0,95,0.00,,,0.00,meteohub,2013-03-13 11:14:00,
2013-03-13 04:19:00,45.1,43.9,29.99,West,280,0.0,0.0,95,0.00,,,0.00,meteohub,2013-03-13 11:19:00,
2013-03-13 04:24:00,45.1,43.9,30.00,West,280,0.0,0.0,95,0.00,,,0.00,meteohub,2013-03-13 11:24:00,
2013-03-13 04:29:00,45.0,43.7,30.00,West,280,0.0,0.0,95,0.00,,,0.00,meteohub,2013-03-13 11:29:00,
2013-03-13 04:34:00,45.0,43.7,30.00,West,280,0.0,0.0,95,0.00,,,0.00,meteohub,2013-03-13 11:34:00,
2013-03-13 04:39:00,44.8,43.5,30.00,West,280,0.0,0.0,95,0.00,,,0.00,meteohub,2013-03-13 11:39:00,
2013-03-13 04:44:00,44.8,43.5,30.00,West,280,0.0,0.0,95,0.00,,,0.00,meteohub,2013-03-13 11:44:00,
2013-03-13 04:49:00,44.8,43.5,30.00,West,280,0.0,0.0,95,0.00,,,0.00,meteohub,2013-03-13 11:49:00,
2013-03-13 04:54:00,44.8,43.7,29.99,West,280,0.0,0.0,96,0.00,,,0.00,meteohub,2013-03-13 11:54:00,
2013-03-13 04:59:00,45.0,43.9,29.99,West,280,0.0,0.0,96,0.00,,,0.00,meteohub,2013-03-13 11:59:00,
2013-03-13 05:04:00,45.0,43.9,29.99,West,280,0.0,0.0,96,0.00,,,0.00,meteohub,2013-03-13 12:04:00,
2013-03-13 05:09:00,45.0,43.9,29.99,West,280,0.0,0.0,96,0.00,,,0.00,meteohub,2013-03-13 12:09:00,
2013-03-13 05:14:00,45.1,44.4,29.99,West,280,0.0,0.0,97,0.00,,,0.00,meteohub,2013-03-13 12:14:00,
2013-03-13 05:19:00,45.3,44.6,29.99,West,280,0.0,0.0,97,0.00,,,0.00,meteohub,2013-03-13 12:19:00,
2013-03-13 05:24:00,45.9,45.1,29.98,West,280,0.0,0.0,97,0.00,,,0.00,meteohub,2013-03-13 12:24:00,
2013-03-13 05:29:00,46.0,45.3,29.98,West,280,0.0,0.0,97,0.00,,,0.00,meteohub,2013-03-13 12:29:00,
2013-03-13 05:34:00,46.2,45.5,29.98,West,280,0.0,0.0,97,0.00,,,0.00,meteohub,2013-03-13 12:34:00,
2013-03-13 05:39:00,46.4,45.7,29.98,West,280,0.0,0.0,97,0.00,,,0.00,meteohub,2013-03-13 12:39:00,
2013-03-13 05:44:00,46.6,45.9,29.98,West,280,0.0,0.0,97,0.00,,,0.00,meteohub,2013-03-13 12:44:00,
2013-03-13 05:49:00,46.8,46.0,29.98,West,280,0.0,0.0,97,0.00,,,0.00,meteohub,2013-03-13 12:49:00,
2013-03-13 05:54:00,46.9,46.2,29.99,West,280,0.0,0.0,97,0.00,,,0.00,meteohub,2013-03-13 12:54:00,
2013-03-13 05:59:00,46.9,46.2,29.99,West,280,0.0,0.0,97,0.00,,,0.00,meteohub,2013-03-13 12:59:00,
2013-03-13 06:04:00,46.9,46.2,29.99,West,280,0.0,0.0,97,0.00,,,0.00,meteohub,2013-03-13 13:04:00,
2013-03-13 06:09:00,46.9,46.2,29.99,West,280,0.0,0.0,97,0.00,,,0.00,meteohub,2013-03-13 13:09:00,
2013-03-13 06:14:00,46.8,46.0,29.99,West,280,0.0,0.0,97,0.00,,,0.00,meteohub,2013-03-13 13:14:00,
2013-03-13 06:19:00,46.8,46.0,29.99,West,280,0.0,0.0,97,0.00,,,0.00,meteohub,2013-03-13 13:19:00,
2013-03-13 06:24:00,46.6,45.9,30.00,West,280,0.0,0.0,97,0.00,,,0.00,meteohub,2013-03-13 13:24:00,
2013-03-13 06:29:00,46.8,46.0,30.00,West,280,0.0,0.0,97,0.00,,,0.00,meteohub,2013-03-13 13:29:00,
2013-03-13 06:34:00,46.8,46.0,30.00,West,280,0.0,0.0,97,0.00,,,0.00,meteohub,2013-03-13 13:34:00,
2013-03-13 06:39:00,46.8,46.0,30.00,West,280,0.0,0.0,97,0.00,,,0.00,meteohub,2013-03-13 13:39:00,
2013-03-13 06:44:00,46.8,46.0,30.00,West,280,0.0,0.0,97,0.00,,,0.00,meteohub,2013-03-13 13:44:00,
2013-03-13 06:49:00,46.6,45.5,30.00,West,280,0.0,0.0,96,0.00,,,0.00,meteohub,2013-03-13 13:49:00,
2013-03-13 06:54:00,46.4,45.3,30.01,West,280,0.0,0.0,96,0.00,,,0.00,meteohub,2013-03-13 13:54:00,
2013-03-13 06:59:00,46.2,45.1,30.01,West,280,0.0,0.0,96,0.00,,,0.00,meteohub,2013-03-13 13:59:00,
2013-03-13 07:04:00,46.2,45.5,30.01,West,280,0.0,0.0,97,0.00,,,0.00,meteohub,2013-03-13 14:04:00,
2013-03-13 07:09:00,46.2,45.1,30.01,West,280,0.0,0.0,96,0.00,,,0.00,meteohub,2013-03-13 14:09:00,
2013-03-13 07:14:00,46.2,45.1,30.01,West,280,0.0,0.0,96,0.00,,,0.00,meteohub,2013-03-13 14:14:00,
2013-03-13 07:19:00,46.0,45.0,30.01,West,280,0.0,0.0,96,0.00,,,0.00,meteohub,2013-03-13 14:19:00,
2013-03-13 07:24:00,46.0,45.0,30.01,West,280,0.0,0.0,96,0.00,,,0.00,meteohub,2013-03-13 14:24:00,
2013-03-13 07:29:00,46.0,45.3,30.01,West,280,0.0,0.0,97,0.00,,,0.00,meteohub,2013-03-13 14:29:00,
2013-03-13 07:35:00,46.0,45.3,30.01,West,280,0.0,0.0,97,0.00,,,0.00,meteohub,2013-03-13 14:35:00,
2013-03-13 07:40:00,45.9,44.8,30.02,West,280,0.0,0.0,96,0.00,,,0.00,meteohub,2013-03-13 14:40:00,
2013-03-13 07:45:00,45.9,44.8,30.02,West,280,0.0,0.0,96,0.00,,,0.00,meteohub,2013-03-13 14:45:00,
2013-03-13 07:50:00,45.7,44.6,30.02,West,280,0.0,0.0,96,0.00,,,0.00,meteohub,2013-03-13 14:50:00,
2013-03-13 07:55:00,45.5,44.4,30.02,West,280,0.0,0.0,96,0.00,,,0.00,meteohub,2013-03-13 14:55:00,
2013-03-13 08:00:00,45.3,44.2,30.02,West,280,0.0,0.0,96,0.00,,,0.00,meteohub,2013-03-13 15:00:00,
2013-03-13 08:05:00,45.3,44.2,30.02,West,280,0.0,0.0,96,0.00,,,0.00,meteohub,2013-03-13 15:05:00,
2013-03-13 08:10:00,45.3,44.2,30.01,West,280,0.0,0.0,96,0.00,,,0.00,meteohub,2013-03-13 15:10:00,
2013-03-13 08:15:00,45.3,44.6,30.01,West,280,0.0,0.0,97,0.00,,,0.00,meteohub,2013-03-13 15:15:00,
2013-03-13 08:20:00,45.3,44.6,30.01,West,280,0.0,0.0,97,0.00,,,0.00,meteohub,2013-03-13 15:20:00,
2013-03-13 08:25:00,45.7,45.0,30.01,West,280,0.0,0.0,97,0.00,,,0.00,meteohub,2013-03-13 15:25:00,
2013-03-13 08:30:00,46.0,45.3,30.01,West,280,0.0,0.0,97,0.00,,,0.00,meteohub,2013-03-13 15:30:00,
2013-03-13 08:35:00,46.6,46.0,30.01,West,280,0.0,0.0,98,0.00,,,0.00,meteohub,2013-03-13 15:35:00,
2013-03-13 08:40:00,47.7,47.1,30.01,West,280,0.0,0.0,98,0.00,,,0.00,meteohub,2013-03-13 15:40:00,
2013-03-13 08:45:00,49.3,48.7,30.01,WNW,287,0.0,2.0,98,0.00,,,0.00,meteohub,2013-03-13 15:45:00,
2013-03-13 08:50:00,50.0,49.5,30.01,WNW,293,0.0,2.0,98,0.00,,,0.00,meteohub,2013-03-13 15:50:00,
2013-03-13 08:55:00,50.7,50.2,30.01,WNW,293,0.0,2.0,98,0.00,,,0.00,meteohub,2013-03-13 15:55:00,
2013-03-13 09:00:00,51.4,50.9,30.01,WNW,293,0.0,1.0,98,0.00,,,0.00,meteohub,2013-03-13 16:00:00,
2013-03-13 09:05:00,52.3,50.7,30.01,WNW,293,0.0,1.0,94,0.00,,,0.00,meteohub,2013-03-13 16:05:00,
2013-03-13 09:10:00,53.2,51.3,30.01,WNW,293,0.0,1.0,93,0.00,,,0.00,meteohub,2013-03-13 16:10:00,
2013-03-13 09:15:00,54.1,51.6,30.01,WNW,293,0.0,0.0,91,0.00,,,0.00,meteohub,2013-03-13 16:15:00,
2013-03-13 09:20:00,54.7,51.3,30.01,WNW,293,0.0,0.0,88,0.00,,,0.00,meteohub,2013-03-13 16:20:00,
2013-03-13 09:25:00,55.0,51.3,30.02,WNW,293,0.0,3.0,87,0.00,,,0.00,meteohub,2013-03-13 16:25:00,
2013-03-13 09:30:00,55.2,50.7,30.02,WNW,293,1.0,3.0,85,0.00,,,0.00,meteohub,2013-03-13 16:30:00,
2013-03-13 09:35:00,55.8,50.7,30.02,WNW,293,0.0,3.0,83,0.00,,,0.00,meteohub,2013-03-13 16:35:00,
2013-03-13 09:40:00,56.3,51.3,30.02,WNW,293,0.0,3.0,83,0.00,,,0.00,meteohub,2013-03-13 16:40:00,
2013-03-13 09:45:00,56.8,51.1,30.02,WNW,293,0.0,2.0,81,0.00,,,0.00,meteohub,2013-03-13 16:45:00,
2013-03-13 09:50:00,57.7,51.6,30.02,WNW,293,0.0,2.0,80,0.00,,,0.00,meteohub,2013-03-13 16:50:00,
2013-03-13 09:55:00,58.8,52.0,30.02,NNW,331,0.0,1.0,78,0.00,,,0.00,meteohub,2013-03-13 16:55:00,
2013-03-13 10:00:00,59.7,52.2,30.02,NNW,331,0.0,1.0,76,0.00,,,0.00,meteohub,2013-03-13 17:00:00,
2013-03-13 10:05:00,60.4,52.2,30.02,NNW,331,0.0,1.0,74,0.00,,,0.00,meteohub,2013-03-13 17:05:00,
2013-03-13 10:10:00,61.2,52.9,30.02,NNW,331,1.0,1.0,74,0.00,,,0.00,meteohub,2013-03-13 17:10:00,
2013-03-13 10:15:00,61.5,53.2,30.02,NNW,331,0.0,3.0,74,0.00,,,0.00,meteohub,2013-03-13 17:15:00,
2013-03-13 10:20:00,62.1,52.5,30.02,NNW,331,0.0,3.0,71,0.00,,,0.00,meteohub,2013-03-13 17:20:00,
2013-03-13 10:25:00,62.1,52.2,30.03,NNW,331,2.0,3.0,70,0.00,,,0.00,meteohub,2013-03-13 17:25:00,
2013-03-13 10:30:00,61.9,52.3,30.03,NNW,331,2.0,4.0,71,0.00,,,0.00,meteohub,2013-03-13 17:30:00,
2013-03-13 10:35:00,62.1,52.5,30.03,NNW,331,1.0,4.0,71,0.00,,,0.00,meteohub,2013-03-13 17:35:00,
2013-03-13 10:40:00,62.4,52.2,30.03,NNW,331,1.0,4.0,69,0.00,,,0.00,meteohub,2013-03-13 17:40:00,
2013-03-13 10:45:00,63.1,52.3,30.03,NNW,331,0.0,3.0,68,0.00,,,0.00,meteohub,2013-03-13 17:45:00,
2013-03-13 10:50:00,63.7,52.9,30.03,NNW,331,1.0,3.0,68,0.00,,,0.00,meteohub,2013-03-13 17:50:00,
2013-03-13 10:55:00,64.2,53.1,30.03,NNW,331,3.0,3.0,67,0.00,,,0.00,meteohub,2013-03-13 17:55:00,
2013-03-13 11:01:00,64.2,53.1,30.03,NNW,331,2.0,4.0,67,0.00,,,0.00,meteohub,2013-03-13 18:01:00,
2013-03-13 11:06:00,64.6,53.4,30.03,NNW,331,0.0,4.0,67,0.00,,,0.00,meteohub,2013-03-13 18:06:00,
2013-03-13 11:11:00,64.9,53.2,30.02,NNW,331,1.0,4.0,66,0.00,,,0.00,meteohub,2013-03-13 18:11:00,
2013-03-13 11:16:00,65.3,53.2,30.02,NW,323,0.0,3.0,65,0.00,,,0.00,meteohub,2013-03-13 18:16:00,
2013-03-13 11:21:00,65.5,53.4,30.02,NW,323,0.0,5.0,65,0.00,,,0.00,meteohub,2013-03-13 18:21:00,
2013-03-13 11:26:00,65.8,54.1,30.02,NW,323,0.0,5.0,66,0.00,,,0.00,meteohub,2013-03-13 18:26:00,
2013-03-13 11:31:00,66.6,55.2,30.02,NW,323,2.0,4.0,67,0.00,,,0.00,meteohub,2013-03-13 18:31:00,
2013-03-13 11:36:00,67.5,54.9,30.02,NW,323,0.0,3.0,64,0.00,,,0.00,meteohub,2013-03-13 18:36:00,
2013-03-13 11:41:00,68.2,55.0,30.01,NW,323,0.0,3.0,63,0.00,,,0.00,meteohub,2013-03-13 18:41:00,
2013-03-13 11:46:00,68.5,55.0,30.01,NW,323,0.0,3.0,62,0.00,,,0.00,meteohub,2013-03-13 18:46:00,
2013-03-13 11:51:00,69.1,55.9,30.01,NW,323,1.0,1.0,63,0.00,,,0.00,meteohub,2013-03-13 18:51:00,
2013-03-13 11:56:00,69.1,54.7,30.01,NW,323,2.0,4.0,60,0.00,,,0.00,meteohub,2013-03-13 18:56:00,
2013-03-13 12:01:00,68.5,55.4,30.01,NW,322,1.0,4.0,63,0.00,,,0.00,meteohub,2013-03-13 19:01:00,
2013-03-13 12:06:00,68.9,55.4,30.01,NW,322,1.0,4.0,62,0.00,,,0.00,meteohub,2013-03-13 19:06:00,
2013-03-13 12:11:00,69.4,55.4,30.01,NW,322,2.0,4.0,61,0.00,,,0.00,meteohub,2013-03-13 19:11:00,
2013-03-13 12:17:00,70.0,55.0,30.01,NW,321,1.0,3.0,59,0.00,,,0.00,meteohub,2013-03-13 19:17:00,
2013-03-13 12:22:00,70.2,55.2,30.01,NW,321,0.0,3.0,59,0.00,,,0.00,meteohub,2013-03-13 19:22:00,
2013-03-13 12:27:00,70.5,55.6,30.01,NW,321,0.0,3.0,59,0.00,,,0.00,meteohub,2013-03-13 19:27:00,
2013-03-13 12:32:00,71.1,55.6,30.01,NW,321,1.0,3.0,58,0.00,,,0.00,meteohub,2013-03-13 19:32:00,
2013-03-13 12:37:00,71.4,55.9,30.01,NW,321,0.0,3.0,58,0.00,,,0.00,meteohub,2013-03-13 19:37:00,
2013-03-13 12:42:00,72.1,57.0,30.00,NW,321,1.0,3.0,59,0.00,,,0.00,meteohub,2013-03-13 19:42:00,
2013-03-13 12:47:00,72.9,56.7,30.00,NW,321,2.0,3.0,57,0.00,,,0.00,meteohub,2013-03-13 19:47:00,
2013-03-13 12:52:00,72.9,54.7,30.00,NW,321,0.0,3.0,53,0.00,,,0.00,meteohub,2013-03-13 19:52:00,
2013-03-13 12:57:00,73.0,55.4,30.00,NW,321,0.0,3.0,54,0.00,,,0.00,meteohub,2013-03-13 19:57:00,
2013-03-13 13:02:00,73.4,55.8,30.00,NW,321,0.0,3.0,54,0.00,,,0.00,meteohub,2013-03-13 20:02:00,
2013-03-13 13:07:00,73.4,55.2,30.00,NW,323,1.0,2.0,53,0.00,,,0.00,meteohub,2013-03-13 20:07:00,
2013-03-13 13:12:00,73.4,55.2,30.00,NNW,327,3.0,5.0,53,0.00,,,0.00,meteohub,2013-03-13 20:12:00,
2013-03-13 13:17:00,73.2,56.1,30.00,NNW,327,0.0,5.0,55,0.00,,,0.00,meteohub,2013-03-13 20:17:00,
2013-03-13 13:22:00,73.2,55.0,30.00,NNW,335,5.0,5.0,53,0.00,,,0.00,meteohub,2013-03-13 20:22:00,
2013-03-13 13:27:00,73.2,54.5,30.00,North,0,5.0,5.0,52,0.00,,,0.00,meteohub,2013-03-13 20:27:00,
2013-03-13 13:32:00,73.0,54.9,30.00,North,5,3.0,6.0,53,0.00,,,0.00,meteohub,2013-03-13 20:32:00,
2013-03-13 13:37:00,73.2,54.5,30.00,NNE,22,7.0,7.0,52,0.00,,,0.00,meteohub,2013-03-13 20:37:00,
2013-03-13 13:42:00,73.2,55.6,29.99,NNE,19,0.0,8.0,54,0.00,,,0.00,meteohub,2013-03-13 20:42:00,
2013-03-13 13:47:00,73.8,55.0,29.99,NNE,17,3.0,8.0,52,0.00,,,0.00,meteohub,2013-03-13 20:47:00,
2013-03-13 13:53:00,73.8,55.0,29.99,NNE,17,0.0,8.0,52,0.00,,,0.00,meteohub,2013-03-13 20:53:00,
2013-03-13 13:58:00,73.8,54.5,29.99,NNE,17,4.0,7.0,51,0.00,,,0.00,meteohub,2013-03-13 20:58:00,
2013-03-13 14:03:00,73.4,54.1,29.99,NNE,17,0.0,7.0,51,0.00,,,0.00,meteohub,2013-03-13 21:03:00,
2013-03-13 14:08:00,73.4,54.7,29.99,North,9,1.0,7.0,52,0.00,,,0.00,meteohub,2013-03-13 21:08:00,
2013-03-13 14:13:00,73.4,55.2,29.98,North,9,0.0,5.0,53,0.00,,,0.00,meteohub,2013-03-13 21:13:00,
2013-03-13 14:18:00,73.4,55.2,29.98,North,9,4.0,5.0,53,0.00,,,0.00,meteohub,2013-03-13 21:18:00,
2013-03-13 14:23:00,73.2,53.4,29.98,North,5,3.0,4.0,50,0.00,,,0.00,meteohub,2013-03-13 21:23:00,
2013-03-13 14:28:00,73.2,53.4,29.98,North,9,3.0,6.0,50,0.00,,,0.00,meteohub,2013-03-13 21:28:00,
2013-03-13 14:33:00,73.2,53.4,29.98,North,5,0.0,6.0,50,0.00,,,0.00,meteohub,2013-03-13 21:33:00,
2013-03-13 14:38:00,73.6,54.3,29.98,North,9,1.0,6.0,51,0.00,,,0.00,meteohub,2013-03-13 21:38:00,
2013-03-13 14:43:00,73.6,53.8,29.97,North,5,2.0,6.0,50,0.00,,,0.00,meteohub,2013-03-13 21:43:00,
2013-03-13 14:48:00,73.8,53.4,29.97,North,5,1.0,4.0,49,0.00,,,0.00,meteohub,2013-03-13 21:48:00,
2013-03-13 14:53:00,73.6,53.2,29.97,North,5,0.0,4.0,49,0.00,,,0.00,meteohub,2013-03-13 21:53:00,
2013-03-13 14:58:00,73.2,54.5,29.96,North,5,0.0,4.0,52,0.00,,,0.00,meteohub,2013-03-13 21:58:00,
2013-03-13 15:03:00,73.0,53.2,29.96,North,5,0.0,4.0,50,0.00,,,0.00,meteohub,2013-03-13 22:03:00,
2013-03-13 15:08:00,73.0,53.8,29.96,North,5,0.0,2.0,51,0.00,,,0.00,meteohub,2013-03-13 22:08:00,
2013-03-13 15:13:00,73.0,54.9,29.96,North,5,0.0,4.0,53,0.00,,,0.00,meteohub,2013-03-13 22:13:00,
2013-03-13 15:18:00,72.7,54.0,29.96,North,5,0.0,4.0,52,0.00,,,0.00,meteohub,2013-03-13 22:18:00,
2013-03-13 15:23:00,72.3,52.7,29.96,North,5,0.0,4.0,50,0.00,,,0.00,meteohub,2013-03-13 22:23:00,
2013-03-13 15:28:00,72.5,52.9,29.96,North,5,1.0,1.0,50,0.00,,,0.00,meteohub,2013-03-13 22:28:00,
2013-03-13 15:33:00,72.9,52.5,29.96,North,5,0.0,3.0,49,0.00,,,0.00,meteohub,2013-03-13 22:33:00,
2013-03-13 15:38:00,73.0,54.9,29.96,North,5,0.0,3.0,53,0.00,,,0.00,meteohub,2013-03-13 22:38:00,
2013-03-13 15:43:00,73.2,55.0,29.96,North,5,0.0,3.0,53,0.00,,,0.00,meteohub,2013-03-13 22:43:00,
2013-03-13 15:48:00,73.2,56.1,29.96,North,5,0.0,3.0,55,0.00,,,0.00,meteohub,2013-03-13 22:48:00,
2013-03-13 15:53:00,73.0,55.4,29.96,North,5,0.0,3.0,54,0.00,,,0.00,meteohub,2013-03-13 22:53:00,
2013-03-13 15:58:00,72.9,55.8,29.95,North,5,0.0,3.0,55,0.00,,,0.00,meteohub,2013-03-13 22:58:00,
2013-03-13 16:03:00,72.9,56.7,29.95,North,5,1.0,2.0,57,0.00,,,0.00,meteohub,2013-03-13 23:03:00,
2013-03-13 16:08:00,72.5,56.5,29.95,North,5,0.0,3.0,57,0.00,,,0.00,meteohub,2013-03-13 23:08:00,
2013-03-13 16:13:00,72.1,56.1,29.94,North,5,0.0,3.0,57,0.00,,,0.00,meteohub,2013-03-13 23:13:00,
2013-03-13 16:18:00,72.1,56.1,29.94,North,5,0.0,3.0,57,0.00,,,0.00,meteohub,2013-03-13 23:18:00,
2013-03-13 16:24:00,72.1,54.5,29.94,North,5,0.0,2.0,54,0.00,,,0.00,meteohub,2013-03-13 23:24:00,
2013-03-13 16:29:00,72.1,53.6,29.94,North,5,0.0,2.0,52,0.00,,,0.00,meteohub,2013-03-13 23:29:00,
2013-03-13 16:33:00,72.1,54.1,29.94,North,5,0.0,2.0,53,0.00,,,0.00,meteohub,2013-03-13 23:33:00,
2013-03-13 16:39:00,72.1,54.1,29.94,North,5,1.0,2.0,53,0.00,,,0.00,meteohub,2013-03-13 23:39:00,
2013-03-13 16:44:00,72.0,54.3,29.94,North,5,0.0,1.0,54,0.00,,,0.00,meteohub,2013-03-13 23:44:00,
2013-03-13 16:49:00,71.8,54.3,29.94,North,5,0.0,1.0,54,0.00,,,0.00,meteohub,2013-03-13 23:49:00,
2013-03-13 16:54:00,71.4,55.9,29.94,North,5,0.0,2.0,58,0.00,,,0.00,meteohub,2013-03-13 23:54:00,
2013-03-13 16:59:00,71.2,54.7,29.94,North,5,0.0,2.0,56,0.00,,,0.00,meteohub,2013-03-13 23:59:00,
2013-03-13 17:04:00,71.1,54.5,29.94,North,5,0.0,2.0,56,0.00,,,0.00,meteohub,2013-03-14 00:04:00,
2013-03-13 17:09:00,70.9,55.4,29.94,North,5,0.0,2.0,58,0.00,,,0.00,meteohub,2013-03-14 00:09:00,
2013-03-13 17:14:00,70.7,55.2,29.94,North,5,0.0,2.0,58,0.00,,,0.00,meteohub,2013-03-14 00:14:00,
2013-03-13 17:19:00,70.5,54.5,29.94,North,5,0.0,1.0,57,0.00,,,0.00,meteohub,2013-03-14 00:19:00,
2013-03-13 17:24:00,70.5,55.0,29.93,North,5,0.0,2.0,58,0.00,,,0.00,meteohub,2013-03-14 00:24:00,
2013-03-13 17:29:00,70.5,54.5,29.93,North,5,0.0,2.0,57,0.00,,,0.00,meteohub,2013-03-14 00:29:00,
2013-03-13 17:34:00,70.5,56.5,29.93,North,5,0.0,2.0,61,0.00,,,0.00,meteohub,2013-03-14 00:34:00,
2013-03-13 17:39:00,70.3,56.3,29.93,North,5,0.0,2.0,61,0.00,,,0.00,meteohub,2013-03-14 00:39:00,
2013-03-13 17:44:00,70.2,57.0,29.93,North,5,0.0,1.0,63,0.00,,,0.00,meteohub,2013-03-14 00:44:00,
2013-03-13 17:50:00,70.2,57.9,29.93,North,5,0.0,1.0,65,0.00,,,0.00,meteohub,2013-03-14 00:50:00,
2013-03-13 17:54:00,69.8,57.6,29.93,North,5,0.0,1.0,65,0.00,,,0.00,meteohub,2013-03-14 00:54:00,
2013-03-13 18:00:00,69.6,57.7,29.93,North,5,0.0,2.0,66,0.00,,,0.00,meteohub,2013-03-14 01:00:00,
2013-03-13 18:05:00,69.3,57.9,29.93,North,5,0.0,2.0,67,0.00,,,0.00,meteohub,2013-03-14 01:05:00,
2013-03-13 18:10:00,69.1,58.1,29.93,North,5,0.0,2.0,68,0.00,,,0.00,meteohub,2013-03-14 01:10:00,
2013-03-13 18:15:00,68.5,57.6,29.93,North,5,0.0,1.0,68,0.00,,,0.00,meteohub,2013-03-14 01:15:00,
2013-03-13 18:20:00,68.4,57.7,29.93,North,5,0.0,0.0,69,0.00,,,0.00,meteohub,2013-03-14 01:20:00,
2013-03-13 18:25:00,68.2,58.1,29.93,North,5,0.0,0.0,70,0.00,,,0.00,meteohub,2013-03-14 01:25:00,
2013-03-13 18:30:00,67.6,57.6,29.93,North,5,0.0,0.0,70,0.00,,,0.00,meteohub,2013-03-14 01:30:00,
2013-03-13 18:35:00,67.6,57.0,29.93,North,5,0.0,1.0,69,0.00,,,0.00,meteohub,2013-03-14 01:35:00,
2013-03-13 18:40:00,67.5,57.7,29.93,North,5,0.0,1.0,71,0.00,,,0.00,meteohub,2013-03-14 01:40:00,
2013-03-13 18:45:00,67.3,57.2,29.93,North,5,0.0,1.0,70,0.00,,,0.00,meteohub,2013-03-14 01:45:00,
2013-03-13 18:50:00,66.7,57.0,29.93,North,5,0.0,0.0,71,0.00,,,0.00,meteohub,2013-03-14 01:50:00,
2013-03-13 18:55:00,66.4,57.0,29.94,North,5,0.0,0.0,72,0.00,,,0.00,meteohub,2013-03-14 01:55:00,
2013-03-13 19:00:00,66.0,57.2,29.94,North,5,0.0,2.0,73,0.00,,,0.00,meteohub,2013-03-14 02:00:00,
2013-03-13 19:05:00,65.7,57.2,29.94,North,5,0.0,2.0,74,0.00,,,0.00,meteohub,2013-03-14 02:05:00,
2013-03-13 19:10:00,65.1,56.7,29.94,North,5,0.0,2.0,74,0.00,,,0.00,meteohub,2013-03-14 02:10:00,
2013-03-13 19:15:00,64.8,56.3,29.94,North,5,0.0,0.0,74,0.00,,,0.00,meteohub,2013-03-14 02:15:00,
2013-03-13 19:20:00,64.2,56.1,29.94,North,5,0.0,0.0,75,0.00,,,0.00,meteohub,2013-03-14 02:20:00,
2013-03-13 19:25:00,63.9,55.8,29.94,North,5,0.0,0.0,75,0.00,,,0.00,meteohub,2013-03-14 02:25:00,
2013-03-13 19:30:00,63.3,55.6,29.94,North,5,0.0,0.0,76,0.00,,,0.00,meteohub,2013-03-14 02:30:00,
2013-03-13 19:35:00,63.0,55.6,29.94,North,5,0.0,0.0,77,0.00,,,0.00,meteohub,2013-03-14 02:35:00,
2013-03-13 19:40:00,62.4,55.4,29.94,North,5,0.0,0.0,78,0.00,,,0.00,meteohub,2013-03-14 02:40:00,
2013-03-13 19:45:00,62.2,55.6,29.94,North,5,0.0,0.0,79,0.00,,,0.00,meteohub,2013-03-14 02:45:00,
2013-03-13 19:50:00,61.9,55.6,29.94,North,5,0.0,0.0,80,0.00,,,0.00,meteohub,2013-03-14 02:50:00,
2013-03-13 19:55:00,61.5,55.2,29.94,North,5,0.0,0.0,80,0.00,,,0.00,meteohub,2013-03-14 02:55:00,
2013-03-13 20:00:00,61.3,55.4,29.94,North,5,0.0,0.0,81,0.00,,,0.00,meteohub,2013-03-14 03:00:00,
2013-03-13 20:05:00,61.0,55.0,29.94,North,5,0.0,0.0,81,0.00,,,0.00,meteohub,2013-03-14 03:05:00,
2013-03-13 20:10:00,60.8,55.2,29.94,North,5,0.0,0.0,82,0.00,,,0.00,meteohub,2013-03-14 03:10:00,
2013-03-13 20:15:00,60.4,54.9,29.94,North,5,0.0,0.0,82,0.00,,,0.00,meteohub,2013-03-14 03:15:00,
2013-03-13 20:20:00,60.3,55.0,29.94,North,5,0.0,0.0,83,0.00,,,0.00,meteohub,2013-03-14 03:20:00,
2013-03-13 20:25:00,59.7,54.5,29.94,North,5,0.0,0.0,83,0.00,,,0.00,meteohub,2013-03-14 03:25:00,
2013-03-13 20:30:00,59.5,54.7,29.94,North,5,0.0,0.0,84,0.00,,,0.00,meteohub,2013-03-14 03:30:00,
2013-03-13 20:35:00,59.2,54.7,29.94,North,5,0.0,0.0,85,0.00,,,0.00,meteohub,2013-03-14 03:35:00,
2013-03-13 20:40:00,58.8,54.3,29.95,North,5,0.0,0.0,85,0.00,,,0.00,meteohub,2013-03-14 03:40:00,
2013-03-13 20:45:00,58.5,54.0,29.95,North,5,0.0,0.0,85,0.00,,,0.00,meteohub,2013-03-14 03:45:00,
2013-03-13 20:50:00,58.3,54.1,29.95,North,5,0.0,0.0,86,0.00,,,0.00,meteohub,2013-03-14 03:50:00,
2013-03-13 20:55:00,57.9,53.8,29.96,North,5,0.0,0.0,86,0.00,,,0.00,meteohub,2013-03-14 03:55:00,
2013-03-13 21:00:00,57.7,53.6,29.96,North,5,0.0,0.0,86,0.00,,,0.00,meteohub,2013-03-14 04:00:00,
2013-03-13 21:05:00,57.4,53.2,29.96,North,5,0.0,0.0,86,0.00,,,0.00,meteohub,2013-03-14 04:05:00,
2013-03-13 21:10:00,57.0,53.2,29.96,North,5,0.0,0.0,87,0.00,,,0.00,meteohub,2013-03-14 04:10:00,
2013-03-13 21:15:00,56.8,53.1,29.96,North,5,0.0,0.0,87,0.00,,,0.00,meteohub,2013-03-14 04:15:00,
2013-03-13 21:20:00,56.7,53.1,29.96,North,5,0.0,0.0,88,0.00,,,0.00,meteohub,2013-03-14 04:20:00,
2013-03-13 21:25:00,56.5,53.2,29.96,North,5,0.0,0.0,89,0.00,,,0.00,meteohub,2013-03-14 04:25:00,
2013-03-13 21:30:00,56.1,52.9,29.96,North,5,0.0,0.0,89,0.00,,,0.00,meteohub,2013-03-14 04:30:00,
2013-03-13 21:35:00,56.1,52.9,29.96,North,5,0.0,0.0,89,0.00,,,0.00,meteohub,2013-03-14 04:35:00,
2013-03-13 21:40:00,55.9,52.7,29.96,North,5,0.0,0.0,89,0.00,,,0.00,meteohub,2013-03-14 04:40:00,
2013-03-13 21:45:00,55.8,52.9,29.96,North,5,0.0,0.0,90,0.00,,,0.00,meteohub,2013-03-14 04:45:00,
2013-03-13 21:50:00,55.6,52.7,29.96,North,5,0.0,0.0,90,0.00,,,0.00,meteohub,2013-03-14 04:50:00,
2013-03-13 21:55:00,55.4,52.5,29.96,North,5,0.0,0.0,90,0.00,,,0.00,meteohub,2013-03-14 04:55:00,
2013-03-13 22:00:00,55.2,52.7,29.96,North,5,0.0,0.0,91,0.00,,,0.00,meteohub,2013-03-14 05:00:00,
2013-03-13 22:05:00,55.0,52.5,29.96,North,5,0.0,0.0,91,0.00,,,0.00,meteohub,2013-03-14 05:05:00,
2013-03-13 22:10:00,55.0,52.5,29.96,North,5,0.0,0.0,91,0.00,,,0.00,meteohub,2013-03-14 05:10:00,
2013-03-13 22:15:00,54.9,52.3,29.96,North,5,0.0,0.0,91,0.00,,,0.00,meteohub,2013-03-14 05:15:00,
2013-03-13 22:20:00,54.7,52.2,29.96,North,5,0.0,0.0,91,0.00,,,0.00,meteohub,2013-03-14 05:20:00,
2013-03-13 22:25:00,54.5,52.0,29.97,North,5,0.0,0.0,91,0.00,,,0.00,meteohub,2013-03-14 05:25:00,
2013-03-13 22:30:00,54.3,51.8,29.97,North,5,0.0,0.0,91,0.00,,,0.00,meteohub,2013-03-14 05:30:00,
2013-03-13 22:36:00,54.1,51.6,29.97,North,5,0.0,0.0,91,0.00,,,0.00,meteohub,2013-03-14 05:36:00,
2013-03-13 22:41:00,54.0,51.6,29.97,North,5,0.0,0.0,92,0.00,,,0.00,meteohub,2013-03-14 05:41:00,
2013-03-13 22:46:00,53.8,51.4,29.97,North,5,0.0,0.0,92,0.00,,,0.00,meteohub,2013-03-14 05:46:00,
2013-03-13 22:51:00,53.8,51.4,29.97,North,5,0.0,0.0,92,0.00,,,0.00,meteohub,2013-03-14 05:51:00,
2013-03-13 22:56:00,53.6,51.6,29.97,North,5,0.0,0.0,93,0.00,,,0.00,meteohub,2013-03-14 05:56:00,
2013-03-13 23:01:00,53.4,51.1,29.97,North,5,0.0,0.0,92,0.00,,,0.00,meteohub,2013-03-14 06:01:00,
2013-03-13 23:06:00,53.2,51.3,29.97,North,5,0.0,0.0,93,0.00,,,0.00,meteohub,2013-03-14 06:06:00,
2013-03-13 23:11:00,53.2,51.3,29.97,North,5,0.0,0.0,93,0.00,,,0.00,meteohub,2013-03-14 06:11:00,
2013-03-13 23:16:00,53.1,51.1,29.97,North,5,0.0,0.0,93,0.00,,,0.00,meteohub,2013-03-14 06:16:00,
2013-03-13 23:21:00,53.1,51.1,29.97,North,5,0.0,0.0,93,0.00,,,0.00,meteohub,2013-03-14 06:21:00,
2013-03-13 23:26:00,53.1,51.1,29.96,North,5,0.0,0.0,93,0.00,,,0.00,meteohub,2013-03-14 06:26:00,
2013-03-13 23:31:00,53.1,51.4,29.96,North,5,0.0,0.0,94,0.00,,,0.00,meteohub,2013-03-14 06:31:00,
2013-03-13 23:36:00,53.1,51.4,29.96,North,5,0.0,0.0,94,0.00,,,0.00,meteohub,2013-03-14 06:36:00,
2013-03-13 23:41:00,53.2,51.8,29.96,North,5,0.0,0.0,95,0.00,,,0.00,meteohub,2013-03-14 06:41:00,
2013-03-13 23:46:00,53.6,52.0,29.96,North,5,0.0,0.0,94,0.00,,,0.00,meteohub,2013-03-14 06:46:00,
2013-03-13 23:51:00,54.0,52.0,29.96,North,5,0.0,0.0,93,0.00,,,0.00,meteohub,2013-03-14 06:51:00,
2013-03-13 23:56:00,54.1,51.8,29.96,North,5,0.0,0.0,92,0.00,,,0.00,meteohub,2013-03-14 06:56:00,